Terminal Aerodrome Forecast
Issued by NWS Buffalo, NY

Home | Current Version | Previous Version | Text Only | Print | Product List | Glossary On
Versions: 1 2 3 4 5 6 7 8 9 10 11 12 13 14 15 16 17 18 19 20 21 22 23 24 25 26 27 28 29 30 31
563
FTUS41 KBUF 260905 AAA
TAFBUF
TAF AMD
KBUF 260905Z 2609/2706 24008KT P6SM OVC008
     FM261500 26015G22KT P6SM BKN025
     FM261800 25014G21KT P6SM SCT040
     FM262000 24014G21KT P6SM SCT250
     FM262300 24010KT P6SM FEW250
     FM270500 21006KT P6SM FEW250=

USA.gov is the U.S. government's official web portal to all federal, state and local government web resources and services.